createdAt,value
2019-05-11T00:00:04.218Z,88.23
2019-05-11T00:01:04.387Z,87.81
2019-05-11T00:02:04.533Z,87.51
2019-05-11T00:03:04.758Z,87.40
2019-05-11T00:04:04.791Z,87.19
2019-05-11T00:05:04.939Z,87.71
2019-05-11T00:06:05.261Z,87.40
2019-05-11T00:07:06.252Z,87.60
2019-05-11T00:08:05.488Z,87.51
2019-05-11T00:09:05.644Z,87.60
2019-05-11T00:10:05.814Z,87.71
2019-05-11T00:11:06.267Z,88.02
2019-05-11T00:12:06.156Z,87.71
2019-05-11T00:13:06.321Z,88.02
2019-05-11T00:14:06.767Z,87.60
2019-05-11T00:15:06.661Z,88.84
2019-05-11T00:16:07.265Z,88.64
2019-05-11T00:17:07.760Z,88.53
2019-05-11T00:18:07.933Z,88.02
2019-05-11T00:19:08.323Z,88.43
2019-05-11T00:20:07.699Z,88.49
2019-05-11T00:21:07.785Z,88.70
2019-05-11T00:22:07.905Z,88.43
2019-05-11T00:23:08.046Z,87.71
2019-05-11T00:24:08.185Z,88.39
2019-05-11T00:25:08.342Z,87.57
2019-05-11T00:26:08.764Z,87.57
2019-05-11T00:27:09.258Z,87.30
2019-05-11T00:28:09.322Z,87.51
2019-05-11T00:29:09.277Z,88.02
2019-05-11T00:30:09.769Z,87.81
2019-05-11T00:31:09.371Z,87.40
2019-05-11T00:32:09.525Z,88.84
2019-05-11T00:33:09.791Z,87.98
2019-05-11T00:34:10.770Z,88.74
2019-05-11T00:35:10.286Z,88.64
2019-05-11T00:36:10.156Z,87.71
2019-05-11T00:37:10.793Z,87.92
2019-05-11T00:38:11.273Z,87.81
2019-05-11T00:39:10.729Z,87.19
2019-05-11T00:40:14.746Z,88.02
2019-05-11T00:41:12.058Z,88.02
2019-05-11T00:42:11.301Z,88.02
2019-05-11T00:43:12.259Z,88.74
2019-05-11T00:44:12.275Z,88.02
2019-05-11T00:45:11.751Z,88.70
2019-05-11T00:46:12.826Z,89.42
2019-05-11T00:47:12.064Z,88.70
2019-05-11T00:48:12.199Z,88.95
2019-05-11T00:49:13.277Z,88.84
2019-05-11T00:50:13.287Z,88.64
2019-05-11T00:51:46.073Z,88.23
2019-05-11T00:52:12.817Z,88.29
2019-05-11T00:53:13.783Z,87.67
2019-05-11T00:54:13.826Z,87.15
2019-05-11T00:55:13.337Z,86.85
2019-05-11T00:56:14.272Z,87.57
2019-05-11T00:57:13.790Z,87.15
2019-05-11T00:58:14.299Z,87.30
2019-05-11T00:59:21.871Z,87.77
2019-05-11T01:00:16.835Z,87.77
2019-05-11T01:01:14.413Z,86.95
2019-05-11T01:02:14.549Z,87.26
2019-05-11T01:03:14.721Z,86.99
2019-05-11T01:04:15.806Z,87.09
2019-05-11T01:05:15.836Z,87.09
2019-05-11T01:06:15.809Z,87.09
2019-05-11T01:07:16.310Z,87.09
2019-05-11T01:08:15.806Z,87.71
2019-05-11T01:09:16.402Z,87.60
2019-05-11T01:10:28.749Z,87.60
2019-05-11T01:11:18.284Z,87.13
2019-05-11T01:12:16.812Z,87.54
2019-05-11T01:13:17.315Z,87.51
2019-05-11T01:14:16.835Z,87.60
2019-05-11T01:15:17.789Z,87.92
2019-05-11T01:16:17.305Z,88.02
2019-05-11T01:17:17.318Z,87.40
2019-05-11T01:18:18.637Z,87.30
2019-05-11T01:19:52.091Z,87.19
2019-05-11T01:20:18.768Z,87.09
2019-05-11T01:21:18.920Z,87.57
2019-05-11T01:22:18.134Z,86.27
2019-05-11T01:23:18.367Z,86.37
2019-05-11T01:24:19.484Z,86.37
2019-05-11T01:25:19.312Z,86.27
2019-05-11T01:26:18.911Z,86.95
2019-05-11T01:27:19.025Z,87.15
2019-05-11T01:28:19.257Z,87.15
2019-05-11T01:29:19.827Z,87.09
2019-05-11T01:30:19.614Z,87.19
2019-05-11T01:31:19.739Z,87.81
2019-05-11T01:32:19.983Z,87.19
2019-05-11T01:33:20.209Z,86.88
2019-05-11T01:34:20.357Z,87.19
2019-05-11T01:35:20.475Z,87.57
2019-05-11T01:36:20.633Z,86.95
2019-05-11T01:37:21.323Z,87.36
2019-05-11T01:38:21.828Z,86.74
2019-05-11T01:39:21.381Z,86.33
2019-05-11T01:40:21.412Z,87.15
2019-05-11T01:41:21.563Z,86.99
2019-05-11T01:42:21.680Z,87.09
2019-05-11T01:43:22.315Z,87.30
2019-05-11T01:44:22.050Z,88.02
2019-05-11T01:45:22.812Z,88.53
2019-05-11T01:46:22.319Z,88.53
2019-05-11T01:47:55.892Z,87.71
2019-05-11T01:48:22.609Z,88.43
2019-05-11T01:49:22.737Z,88.43
2019-05-11T01:50:22.844Z,88.84
2019-05-11T01:51:23.025Z,88.64
2019-05-11T01:52:23.187Z,88.74
2019-05-11T01:53:23.371Z,88.43
2019-05-11T01:54:23.526Z,89.05
2019-05-11T01:55:23.692Z,88.80
2019-05-11T01:56:24.370Z,88.84
2019-05-11T01:57:23.966Z,88.18
2019-05-11T01:58:24.858Z,87.87
2019-05-11T01:59:24.378Z,87.98
2019-05-11T02:00:24.518Z,87.98
2019-05-11T02:01:25.354Z,87.87
2019-05-11T02:02:24.917Z,88.90
2019-05-11T02:03:25.056Z,88.59
2019-05-11T02:04:25.885Z,88.23
2019-05-11T02:05:25.875Z,88.33
2019-05-11T02:06:26.361Z,88.02
2019-05-11T02:07:25.840Z,88.17
2019-05-11T02:08:26.005Z,88.64
2019-05-11T02:09:26.878Z,88.68
2019-05-11T02:10:26.884Z,89.19
2019-05-11T02:11:26.542Z,88.78
2019-05-11T02:12:26.688Z,88.53
2019-05-11T02:13:27.338Z,88.53
2019-05-11T02:14:27.983Z,87.71
2019-05-11T02:15:27.207Z,88.23
2019-05-11T02:16:27.345Z,88.43
2019-05-11T02:17:28.397Z,89.15
2019-05-11T02:18:27.678Z,89.05
2019-05-11T02:19:27.861Z,89.36
2019-05-11T02:20:28.375Z,89.11
2019-05-11T02:21:28.389Z,88.84
2019-05-11T02:22:29.344Z,88.49
2019-05-11T02:23:28.577Z,88.29
2019-05-11T02:24:29.364Z,88.18
2019-05-11T02:25:29.862Z,88.08
2019-05-11T02:26:29.391Z,88.70
2019-05-11T02:27:29.872Z,87.87
2019-05-11T02:28:30.353Z,87.46
2019-05-11T02:29:30.383Z,88.70
2019-05-11T02:30:30.864Z,88.18
2019-05-11T02:31:30.393Z,88.84
2019-05-11T02:32:30.864Z,89.15
2019-05-11T02:33:30.513Z,89.73
2019-05-11T02:34:30.882Z,89.73
2019-05-11T02:35:30.788Z,90.18
2019-05-11T02:36:30.931Z,90.55
2019-05-11T02:37:31.379Z,90.55
2019-05-11T02:38:31.857Z,90.49
2019-05-11T02:39:31.500Z,90.24
2019-05-11T02:40:31.625Z,90.34
2019-05-11T02:41:36.306Z,90.28
2019-05-11T02:42:33.947Z,90.49
2019-05-11T02:43:32.880Z,90.45
2019-05-11T02:45:07.781Z,90.28
2019-05-11T02:45:32.484Z,89.94
2019-05-11T02:46:32.922Z,90.55
2019-05-11T02:47:32.805Z,90.14
2019-05-11T02:48:33.064Z,90.66
2019-05-11T02:49:33.161Z,90.39
2019-05-11T02:50:33.890Z,90.45
2019-05-11T02:51:33.513Z,90.75
2019-05-11T02:52:34.380Z,90.45
2019-05-11T02:53:33.899Z,89.94
2019-05-11T02:54:34.881Z,90.45
2019-05-11T02:55:34.887Z,90.34
2019-05-11T02:56:34.921Z,89.89
2019-05-11T02:57:34.894Z,89.83
2019-05-11T02:58:34.784Z,89.69
2019-05-11T02:59:35.019Z,89.31
2019-05-11T03:00:35.890Z,88.90
2019-05-11T03:01:35.370Z,89.42
2019-05-11T03:02:35.914Z,89.73
2019-05-11T03:03:35.687Z,90.34
2019-05-11T03:04:35.808Z,90.72
2019-05-11T03:05:36.883Z,88.90
2019-05-11T03:06:36.885Z,88.66
2019-05-11T03:07:36.506Z,87.57
2019-05-11T03:08:36.702Z,87.94
2019-05-11T03:09:37.383Z,88.45
2019-05-11T03:10:37.888Z,88.76
2019-05-11T03:11:53.976Z,88.66
2019-05-11T03:13:09.460Z,88.14
2019-05-11T03:13:37.569Z,88.35
2019-05-11T03:14:37.736Z,88.70
2019-05-11T03:15:37.872Z,88.96
2019-05-11T03:16:38.015Z,89.38
2019-05-11T03:17:38.141Z,89.17
2019-05-11T03:18:38.409Z,89.38
2019-05-11T03:19:38.545Z,89.58
2019-05-11T03:20:39.398Z,89.73
2019-05-11T03:21:38.917Z,90.41
2019-05-11T03:22:39.039Z,90.51
2019-05-11T03:23:39.200Z,90.34
2019-05-11T03:24:39.413Z,90.03
2019-05-11T03:25:40.405Z,90.51
2019-05-11T03:26:39.901Z,89.94
2019-05-11T03:27:39.927Z,90.66
2019-05-11T03:28:40.062Z,90.45
2019-05-11T03:29:40.204Z,90.55
2019-05-11T03:30:40.344Z,90.03
2019-05-11T03:31:41.402Z,90.66
2019-05-11T03:32:41.649Z,91.06
2019-05-11T03:33:40.952Z,91.02
2019-05-11T03:34:41.083Z,90.30
2019-05-11T03:35:41.924Z,90.14
2019-05-11T03:36:41.554Z,89.79
2019-05-11T03:37:42.419Z,90.03
2019-05-11T03:38:41.898Z,90.55
2019-05-11T03:39:42.054Z,90.51
2019-05-11T03:41:15.822Z,91.27
2019-05-11T03:41:42.414Z,90.86
2019-05-11T03:42:42.544Z,90.96
2019-05-11T03:43:43.431Z,90.96
2019-05-11T03:44:42.818Z,90.96
2019-05-11T03:45:42.953Z,91.02
2019-05-11T03:46:43.107Z,91.47
2019-05-11T03:47:44.238Z,90.86
2019-05-11T03:48:43.461Z,91.06
2019-05-11T03:49:43.580Z,90.66
2019-05-11T03:50:43.817Z,90.75
2019-05-11T03:51:44.469Z,90.51
2019-05-11T03:52:44.190Z,90.75
2019-05-11T03:53:44.329Z,90.72
2019-05-11T03:54:44.463Z,90.86
2019-05-11T03:55:44.569Z,91.17
2019-05-11T03:56:44.944Z,91.53
2019-05-11T03:57:44.946Z,91.02
2019-05-11T03:58:45.203Z,90.86
2019-05-11T03:59:45.313Z,91.58
2019-05-11T04:00:45.544Z,91.58
2019-05-11T04:01:45.774Z,91.44
2019-05-11T04:02:46.421Z,91.85
2019-05-11T04:03:46.032Z,91.44
2019-05-11T04:04:46.140Z,91.38
2019-05-11T04:05:46.339Z,91.44
2019-05-11T04:06:46.447Z,91.53
2019-05-11T04:07:46.559Z,91.64
2019-05-11T04:09:20.295Z,90.92
2019-05-11T04:09:47.015Z,90.86
2019-05-11T04:10:47.191Z,91.47
2019-05-11T04:11:47.352Z,91.33
2019-05-11T04:12:47.605Z,91.44
2019-05-11T04:13:47.763Z,91.68
2019-05-11T04:14:48.904Z,91.53
2019-05-11T04:15:48.468Z,91.64
2019-05-11T04:16:48.957Z,92.16
2019-05-11T04:17:48.973Z,91.53
2019-05-11T04:18:48.583Z,91.33
2019-05-11T04:19:48.834Z,91.38
2019-05-11T04:20:49.082Z,91.38
2019-05-11T04:21:49.202Z,91.85
2019-05-11T04:22:49.322Z,91.38
2019-05-11T04:23:49.573Z,90.92
2019-05-11T04:24:49.696Z,91.53
2019-05-11T04:25:49.834Z,91.74
2019-05-11T04:26:49.963Z,91.44
2019-05-11T04:27:50.065Z,91.53
2019-05-11T04:28:50.260Z,91.38
2019-05-11T04:29:51.508Z,91.38
2019-05-11T04:30:50.709Z,90.75
2019-05-11T04:31:51.474Z,91.38
2019-05-11T04:32:51.033Z,91.38
2019-05-11T04:33:51.250Z,91.64
2019-05-11T04:34:51.468Z,91.74
2019-05-11T04:35:51.670Z,91.64
2019-05-11T04:37:26.388Z,91.58
2019-05-11T04:37:53.017Z,91.47
2019-05-11T04:38:52.349Z,91.27
2019-05-11T04:39:53.058Z,91.99
2019-05-11T04:40:52.786Z,91.78
2019-05-11T04:41:52.977Z,91.78
2019-05-11T04:42:55.718Z,92.50
2019-05-11T04:43:54.304Z,92.10
2019-05-11T04:44:53.498Z,91.38
2019-05-11T04:45:53.695Z,91.27
2019-05-11T04:46:53.911Z,92.25
2019-05-11T04:47:54.135Z,91.02
2019-05-11T04:48:54.346Z,91.85
2019-05-11T04:49:54.573Z,91.85
2019-05-11T04:50:54.698Z,91.64
2019-05-11T04:51:54.922Z,91.53
2019-05-11T04:52:55.141Z,91.13
2019-05-11T04:53:55.387Z,90.81
2019-05-11T04:54:55.520Z,90.72
2019-05-11T04:55:55.681Z,91.53
2019-05-11T04:56:55.810Z,91.33
2019-05-11T04:57:55.958Z,91.80
2019-05-11T04:58:56.109Z,91.08
2019-05-11T04:59:56.257Z,90.81
2019-05-11T05:00:56.459Z,91.02
2019-05-11T05:01:56.584Z,90.72
2019-05-11T05:02:56.712Z,90.61
2019-05-11T05:04:12.211Z,90.41
2019-05-11T05:05:23.571Z,90.41
2019-05-11T05:05:57.189Z,91.02
2019-05-11T05:06:59.890Z,90.51
2019-05-11T05:08:09.015Z,91.58
2019-05-11T05:09:03.618Z,91.99
2019-05-11T05:09:57.801Z,91.53
2019-05-11T05:11:00.572Z,91.53
2019-05-11T05:12:00.035Z,91.33
2019-05-11T05:13:09.953Z,90.92
2019-05-11T05:14:01.835Z,90.92
2019-05-11T05:15:00.599Z,91.02
2019-05-11T05:15:58.833Z,90.81
2019-05-11T05:16:59.011Z,91.13
2019-05-11T05:17:59.526Z,90.51
2019-05-11T05:18:59.392Z,91.68
2019-05-11T05:19:59.537Z,91.78
2019-05-11T05:21:00.541Z,90.72
2019-05-11T05:21:59.983Z,90.86
2019-05-11T05:23:00.136Z,91.44
2019-05-11T05:24:00.294Z,91.47
2019-05-11T05:25:00.460Z,91.74
2019-05-11T05:26:01.032Z,91.85
2019-05-11T05:27:00.751Z,91.53
2019-05-11T05:28:01.008Z,91.44
2019-05-11T05:29:01.127Z,91.44
2019-05-11T05:30:01.382Z,91.95
2019-05-11T05:31:01.517Z,91.64
2019-05-11T05:32:01.698Z,90.72
2019-05-11T05:33:34.493Z,91.44
2019-05-11T05:34:01.984Z,91.02
2019-05-11T05:35:03.051Z,91.02
2019-05-11T05:36:02.301Z,91.23
2019-05-11T05:37:02.437Z,90.41
2019-05-11T05:38:02.562Z,90.81
2019-05-11T05:39:02.689Z,90.92
2019-05-11T05:40:02.814Z,89.89
2019-05-11T05:41:03.035Z,90.61
2019-05-11T05:42:03.165Z,90.81
2019-05-11T05:43:04.075Z,90.92
2019-05-11T05:44:03.586Z,91.13
2019-05-11T05:45:04.753Z,90.51
2019-05-11T05:46:03.713Z,90.81
2019-05-11T05:47:03.936Z,90.72
2019-05-11T05:48:05.098Z,90.51
2019-05-11T05:49:04.349Z,90.61
2019-05-11T05:50:05.052Z,91.08
2019-05-11T05:51:04.697Z,90.57
2019-05-11T05:52:04.865Z,90.36
2019-05-11T05:53:04.975Z,90.16
2019-05-11T05:54:05.121Z,89.64
2019-05-11T05:55:05.234Z,90.36
2019-05-11T05:56:05.449Z,90.78
2019-05-11T05:57:05.666Z,90.36
2019-05-11T05:58:05.900Z,90.73
2019-05-11T05:59:06.030Z,90.26
2019-05-11T06:00:07.039Z,90.73
2019-05-11T06:01:09.846Z,90.32
2019-05-11T06:02:39.572Z,89.60
2019-05-11T06:03:07.109Z,89.60
2019-05-11T06:04:06.923Z,89.36
2019-05-11T06:05:07.188Z,89.29
2019-05-11T06:06:07.281Z,89.25
2019-05-11T06:07:07.503Z,88.74
2019-05-11T06:08:08.564Z,88.57
2019-05-11T06:09:07.904Z,89.04
2019-05-11T06:10:08.091Z,89.97
2019-05-11T06:11:08.215Z,90.59
2019-05-11T06:12:08.484Z,90.28
2019-05-11T06:13:08.697Z,90.22
2019-05-11T06:14:09.577Z,88.64
2019-05-11T06:15:09.071Z,89.19
2019-05-11T06:16:09.191Z,88.33
2019-05-11T06:17:09.325Z,88.47
2019-05-11T06:18:10.088Z,88.74
2019-05-11T06:19:09.713Z,88.33
2019-05-11T06:20:09.995Z,88.95
2019-05-11T06:21:10.047Z,88.89
2019-05-11T06:22:11.087Z,87.40
2019-05-11T06:23:10.317Z,88.12
2019-05-11T06:24:10.494Z,87.96
2019-05-11T06:25:10.688Z,88.37
2019-05-11T06:26:10.832Z,88.64
2019-05-11T06:27:11.015Z,88.68
2019-05-11T06:28:11.165Z,89.29
2019-05-11T06:29:11.300Z,89.19
2019-05-11T06:30:44.018Z,88.68
2019-05-11T06:31:12.606Z,89.23
2019-05-11T06:32:12.603Z,89.40
2019-05-11T06:33:11.974Z,90.26
2019-05-11T06:34:12.603Z,89.29
2019-05-11T06:35:12.336Z,89.64
2019-05-11T06:36:12.495Z,89.44
2019-05-11T06:37:12.646Z,90.47
2019-05-11T06:38:12.826Z,90.26
2019-05-11T06:39:12.973Z,89.70
2019-05-11T06:40:13.127Z,90.67
2019-05-11T06:41:13.272Z,89.85
2019-05-11T06:42:13.470Z,90.06
2019-05-11T06:43:13.635Z,90.88
2019-05-11T06:44:14.605Z,90.88
2019-05-11T06:45:14.601Z,90.57
2019-05-11T06:46:14.096Z,90.47
2019-05-11T06:47:15.127Z,90.63
2019-05-11T06:48:14.405Z,90.78
2019-05-11T06:49:14.595Z,90.98
2019-05-11T06:50:14.756Z,90.73
2019-05-11T06:51:15.039Z,90.67
2019-05-11T06:52:15.243Z,90.98
2019-05-11T06:53:15.397Z,90.88
2019-05-11T06:54:16.559Z,91.35
2019-05-11T06:55:16.129Z,91.35
2019-05-11T06:56:15.887Z,92.38
2019-05-11T06:57:16.016Z,91.76
2019-05-11T06:58:49.159Z,91.14
2019-05-11T06:59:16.380Z,91.41
2019-05-11T07:00:16.535Z,91.41
2019-05-11T07:01:17.639Z,91.14
2019-05-11T07:02:16.929Z,91.25
2019-05-11T07:03:17.072Z,90.63
2019-05-11T07:04:17.238Z,90.42
2019-05-11T07:05:17.409Z,90.42
2019-05-11T07:06:17.556Z,91.08
2019-05-11T07:07:17.697Z,90.47
2019-05-11T07:08:17.872Z,91.39
2019-05-11T07:09:18.060Z,92.42
2019-05-11T07:10:18.252Z,91.55
2019-05-11T07:11:18.414Z,91.60
2019-05-11T07:12:18.652Z,91.35
2019-05-11T07:13:18.742Z,91.55
2019-05-11T07:14:21.090Z,91.35
2019-05-11T07:15:20.114Z,91.45
2019-05-11T07:16:19.237Z,91.55
2019-05-11T07:17:20.140Z,91.66
2019-05-11T07:18:19.556Z,91.55
2019-05-11T07:19:20.648Z,90.73
2019-05-11T07:20:19.891Z,91.76
2019-05-11T07:21:20.016Z,91.66
2019-05-11T07:22:20.154Z,90.42
2019-05-11T07:23:20.683Z,90.89
2019-05-11T07:24:20.448Z,91.61
2019-05-11T07:25:20.648Z,90.73
2019-05-11T07:26:53.479Z,90.94
2019-05-11T07:27:21.665Z,91.86
2019-05-11T07:28:21.189Z,91.31
2019-05-11T07:29:21.344Z,91.00
2019-05-11T07:30:21.521Z,90.53
2019-05-11T07:31:21.700Z,91.35
2019-05-11T07:32:25.643Z,91.51
2019-05-11T07:33:23.055Z,91.31
2019-05-11T07:34:22.166Z,92.33
2019-05-11T07:35:22.316Z,91.31
2019-05-11T07:36:22.484Z,91.20
2019-05-11T07:37:24.415Z,90.38
2019-05-11T07:38:24.691Z,90.38
2019-05-11T07:39:23.057Z,91.00
2019-05-11T07:40:23.199Z,91.10
2019-05-11T07:41:23.341Z,91.00
2019-05-11T07:42:24.159Z,90.89
2019-05-11T07:43:23.618Z,91.00
2019-05-11T07:44:37.510Z,90.48
2019-05-11T07:45:28.161Z,90.59
2019-05-11T07:46:24.078Z,91.00
2019-05-11T07:47:24.229Z,91.20
2019-05-11T07:48:24.402Z,90.89
2019-05-11T07:49:24.540Z,90.55
2019-05-11T07:50:24.665Z,90.95
2019-05-11T07:51:24.867Z,91.06
2019-05-11T07:52:25.014Z,90.44
2019-05-11T07:53:25.148Z,89.76
2019-05-11T07:54:58.369Z,90.24
2019-05-11T07:55:27.997Z,90.24
2019-05-11T07:56:25.766Z,90.03
2019-05-11T07:57:28.210Z,90.80
2019-05-11T07:58:28.519Z,89.93
2019-05-11T07:59:28.989Z,89.83
2019-05-11T08:00:28.017Z,89.93
2019-05-11T08:01:28.345Z,90.55
2019-05-11T08:02:29.269Z,90.09
2019-05-11T08:03:28.457Z,90.24
2019-05-11T08:04:28.908Z,89.58
2019-05-11T08:05:28.637Z,89.52
2019-05-11T08:06:28.539Z,89.31
2019-05-11T08:07:28.859Z,88.49
2019-05-11T08:08:28.436Z,88.90
2019-05-11T08:09:29.099Z,89.58
2019-05-11T08:10:28.331Z,89.58
2019-05-11T08:11:31.412Z,90.14
2019-05-11T08:12:29.653Z,88.96
2019-05-11T08:13:28.856Z,89.07
2019-05-11T08:14:29.020Z,89.21
2019-05-11T08:15:29.141Z,88.70
2019-05-11T08:16:29.484Z,89.42
2019-05-11T08:17:29.527Z,89.72
2019-05-11T08:18:29.666Z,90.14
2019-05-11T08:19:29.809Z,90.24
2019-05-11T08:20:29.940Z,90.20
2019-05-11T08:21:30.113Z,89.17
2019-05-11T08:22:31.223Z,88.24
2019-05-11T08:23:30.489Z,88.59
2019-05-11T08:24:30.665Z,89.07
2019-05-11T08:25:31.698Z,88.86
2019-05-11T08:26:30.976Z,89.42
2019-05-11T08:27:31.090Z,89.72
2019-05-11T08:28:31.244Z,89.21
2019-05-11T08:29:32.209Z,89.31
2019-05-11T08:30:32.209Z,89.31
2019-05-11T08:31:32.716Z,90.34
2019-05-11T08:32:31.952Z,90.65
2019-05-11T08:33:32.127Z,91.47
2019-05-11T08:34:32.282Z,91.42
2019-05-11T08:35:32.437Z,90.55
2019-05-11T08:36:32.582Z,90.95
2019-05-11T08:37:32.749Z,91.41
2019-05-11T08:38:32.926Z,91.99
2019-05-11T08:39:33.082Z,91.37
2019-05-11T08:40:33.227Z,91.37
2019-05-11T08:41:33.443Z,91.27
2019-05-11T08:42:33.605Z,91.16
2019-05-11T08:43:33.826Z,90.50
2019-05-11T08:44:34.008Z,90.75
2019-05-11T08:45:34.161Z,91.42
2019-05-11T08:46:34.356Z,91.42
2019-05-11T08:47:34.538Z,91.22
2019-05-11T08:48:35.217Z,90.30
2019-05-11T08:49:34.864Z,90.56
2019-05-11T08:50:35.020Z,90.36
2019-05-11T08:51:35.180Z,90.67
2019-05-11T08:52:38.430Z,90.30
2019-05-11T08:53:35.540Z,90.71
2019-05-11T08:54:38.179Z,89.99
2019-05-11T08:55:38.085Z,89.58
2019-05-11T08:56:38.077Z,89.07
2019-05-11T08:57:38.518Z,89.37
2019-05-11T08:58:37.990Z,89.69
2019-05-11T08:59:38.118Z,89.69
2019-05-11T09:00:38.950Z,90.16
2019-05-11T09:01:39.365Z,89.78
2019-05-11T09:02:38.427Z,89.37
2019-05-11T09:03:39.221Z,88.66
2019-05-11T09:04:41.295Z,87.53
2019-05-11T09:05:38.817Z,88.56
2019-05-11T09:06:37.962Z,89.07
2019-05-11T09:07:38.556Z,88.35
2019-05-11T09:08:39.330Z,89.37
2019-05-11T09:09:39.227Z,88.76
2019-05-11T09:10:39.839Z,88.66
2019-05-11T09:11:39.896Z,90.61
2019-05-11T09:12:39.112Z,90.56
2019-05-11T09:13:39.483Z,90.26
2019-05-11T09:14:40.422Z,90.56
2019-05-11T09:15:40.770Z,90.67
2019-05-11T09:16:40.674Z,89.95
2019-05-11T09:17:39.872Z,89.33
2019-05-11T09:18:40.119Z,89.03
2019-05-11T09:20:44.313Z,90.52
2019-05-11T09:21:44.852Z,89.13
2019-05-11T09:22:45.336Z,89.54
2019-05-11T09:23:47.878Z,89.03
2019-05-11T09:24:45.086Z,88.41
2019-05-11T09:25:47.583Z,90.16
2019-05-11T09:26:48.028Z,90.16
2019-05-11T09:27:48.578Z,89.90
2019-05-11T09:28:47.651Z,90.73
2019-05-11T09:29:48.966Z,90.48
2019-05-11T09:30:48.325Z,87.45
2019-05-11T09:31:48.815Z,88.98
2019-05-11T09:32:48.692Z,88.17
2019-05-11T09:33:48.174Z,87.45
2019-05-11T09:34:49.985Z,87.34
2019-05-11T09:35:52.535Z,87.55
2019-05-11T09:36:50.442Z,88.37
2019-05-11T09:37:48.701Z,88.98
2019-05-11T09:38:49.149Z,88.27
2019-05-11T09:39:50.067Z,88.62
2019-05-11T09:40:49.959Z,88.72
2019-05-11T09:41:49.491Z,88.57
2019-05-11T09:42:50.424Z,89.81
2019-05-11T09:43:50.451Z,90.11
2019-05-11T09:44:50.469Z,89.60
2019-05-11T09:45:51.962Z,89.29
2019-05-11T09:46:51.352Z,87.24
2019-05-11T09:47:50.980Z,88.47
2019-05-11T09:48:50.614Z,88.27
2019-05-11T09:49:51.242Z,87.59
2019-05-11T09:50:52.465Z,88.47
2019-05-11T09:51:51.051Z,87.96
2019-05-11T09:52:51.196Z,88.94
2019-05-11T09:53:51.482Z,87.41
2019-05-11T09:54:52.521Z,87.10
2019-05-11T09:55:52.471Z,87.45
2019-05-11T09:56:51.877Z,88.33
2019-05-11T09:57:52.035Z,89.04
2019-05-11T09:58:52.968Z,88.64
2019-05-11T09:59:52.355Z,89.15
2019-05-11T10:00:52.521Z,89.04
2019-05-11T10:01:52.997Z,88.33
2019-05-11T10:02:53.482Z,87.92
2019-05-11T10:03:53.108Z,89.04
2019-05-11T10:04:53.951Z,89.04
2019-05-11T10:05:53.953Z,89.04
2019-05-11T10:06:53.627Z,88.02
2019-05-11T10:07:53.773Z,88.33
2019-05-11T10:08:53.962Z,88.47
2019-05-11T10:09:54.113Z,89.04
2019-05-11T10:10:54.273Z,90.52
2019-05-11T10:11:54.469Z,89.60
2019-05-11T10:12:55.475Z,89.15
2019-05-11T10:13:55.003Z,89.15
2019-05-11T10:14:55.991Z,89.45
2019-05-11T10:16:28.253Z,89.45
2019-05-11T10:16:55.365Z,88.57
2019-05-11T10:17:58.224Z,88.27
2019-05-11T10:18:59.278Z,90.01
2019-05-11T10:19:58.207Z,89.36
2019-05-11T10:20:58.689Z,89.15
2019-05-11T10:21:58.016Z,88.43
2019-05-11T10:22:58.012Z,88.47
2019-05-11T10:23:58.078Z,88.94
2019-05-11T10:24:58.351Z,88.98
2019-05-11T10:25:58.706Z,89.39
2019-05-11T10:26:58.326Z,89.25
2019-05-11T10:27:58.086Z,88.88
2019-05-11T10:28:58.762Z,90.17
2019-05-11T10:29:58.984Z,89.87
2019-05-11T10:30:59.154Z,90.01
2019-05-11T10:31:58.844Z,89.39
2019-05-11T10:32:59.554Z,89.09
2019-05-11T10:33:59.480Z,89.39
2019-05-11T10:34:58.965Z,89.09
2019-05-11T10:36:02.780Z,89.50
2019-05-11T10:36:59.317Z,89.60
2019-05-11T10:38:00.480Z,90.01
2019-05-11T10:38:59.680Z,89.70
2019-05-11T10:39:59.959Z,89.39
2019-05-11T10:41:00.105Z,88.72
2019-05-11T10:42:00.258Z,88.62
2019-05-11T10:43:01.025Z,90.42
2019-05-11T10:44:33.882Z,90.32
2019-05-11T10:45:00.745Z,89.13
2019-05-11T10:46:15.655Z,88.41
2019-05-11T10:47:01.128Z,88.37
2019-05-11T10:48:02.060Z,87.59
2019-05-11T10:49:02.073Z,88.21
2019-05-11T10:50:01.585Z,88.37
2019-05-11T10:51:01.732Z,88.98
2019-05-11T10:52:01.931Z,87.96
2019-05-11T10:53:02.085Z,88.78
2019-05-11T10:54:02.240Z,88.27
2019-05-11T10:55:02.431Z,87.96
2019-05-11T10:56:02.621Z,88.57
2019-05-11T10:57:02.757Z,88.37
2019-05-11T10:58:02.881Z,88.78
2019-05-11T10:59:03.036Z,89.87
2019-05-11T11:00:03.187Z,89.36
2019-05-11T11:01:03.352Z,89.04
2019-05-11T11:02:03.518Z,89.00
2019-05-11T11:03:03.686Z,89.15
2019-05-11T11:04:04.517Z,89.45
2019-05-11T11:05:05.032Z,89.04
2019-05-11T11:06:04.180Z,88.53
2019-05-11T11:07:04.343Z,88.94
2019-05-11T11:08:04.475Z,88.18
2019-05-11T11:09:04.607Z,88.43
2019-05-11T11:10:05.520Z,88.29
2019-05-11T11:11:04.901Z,88.59
2019-05-11T11:12:38.975Z,88.18
2019-05-11T11:13:05.175Z,88.39
2019-05-11T11:14:05.330Z,86.96
2019-05-11T11:15:07.749Z,86.75
2019-05-11T11:16:08.188Z,87.37
2019-05-11T11:17:08.669Z,86.96
2019-05-11T11:18:08.415Z,87.94
2019-05-11T11:19:07.657Z,88.35
2019-05-11T11:20:08.540Z,87.73
2019-05-11T11:21:08.687Z,86.61
2019-05-11T11:22:35.391Z,87.26
2019-05-11T11:23:09.074Z,87.06
2019-05-11T11:24:08.056Z,86.65
2019-05-11T11:25:08.063Z,86.44
2019-05-11T11:26:08.221Z,85.22
2019-05-11T11:27:29.756Z,85.87
2019-05-11T11:28:08.517Z,86.99
2019-05-11T11:29:10.056Z,87.06
2019-05-11T11:30:09.340Z,87.10
2019-05-11T11:31:09.524Z,85.87
2019-05-11T11:32:08.740Z,84.95
2019-05-11T11:33:08.764Z,85.83
2019-05-11T11:34:08.896Z,85.66
2019-05-11T11:35:09.053Z,85.77
2019-05-11T11:36:09.575Z,86.34
2019-05-11T11:37:11.965Z,86.34
2019-05-11T11:38:09.578Z,87.37
2019-05-11T11:39:09.707Z,85.11
2019-05-11T11:40:44.186Z,85.63
2019-05-11T11:41:10.011Z,85.89
2019-05-11T11:42:10.591Z,85.17
2019-05-11T11:43:10.310Z,86.61
2019-05-11T11:44:11.100Z,83.84
2019-05-11T11:45:10.689Z,85.11
2019-05-11T11:46:10.897Z,85.48
2019-05-11T11:47:11.585Z,86.51
2019-05-11T11:48:11.320Z,86.71
2019-05-11T11:49:11.442Z,86.81
2019-05-11T11:50:12.583Z,86.71
2019-05-11T11:51:11.825Z,86.61
2019-05-11T11:52:12.578Z,85.89
2019-05-11T11:53:12.608Z,84.22
2019-05-11T11:54:12.323Z,84.25
2019-05-11T11:55:12.426Z,83.39
2019-05-11T11:56:13.594Z,83.64
2019-05-11T11:57:48.993Z,81.90
2019-05-11T11:58:13.031Z,83.95
2019-05-11T11:59:13.252Z,82.41
2019-05-11T12:00:14.124Z,83.03
2019-05-11T12:01:13.787Z,83.78
2019-05-11T12:02:13.949Z,83.88
2019-05-11T12:03:14.083Z,83.06
2019-05-11T12:04:15.102Z,83.98
2019-05-11T12:05:14.434Z,84.12
2019-05-11T12:06:14.559Z,84.74
2019-05-11T12:07:17.776Z,83.92
2019-05-11T12:08:14.958Z,85.25
2019-05-11T12:09:15.082Z,84.84
2019-05-11T12:10:15.184Z,83.92
2019-05-11T12:11:15.388Z,83.47
2019-05-11T12:12:15.625Z,83.98
2019-05-11T12:13:15.819Z,84.09
2019-05-11T12:14:16.130Z,83.78
2019-05-11T12:15:17.756Z,83.64
2019-05-11T12:16:18.337Z,84.25
2019-05-11T12:17:18.215Z,83.58
2019-05-11T12:18:18.631Z,83.78
2019-05-11T12:19:18.700Z,83.78
2019-05-11T12:20:18.172Z,82.76
2019-05-11T12:21:19.099Z,83.58
2019-05-11T12:22:18.817Z,82.45
2019-05-11T12:23:19.610Z,82.28
2019-05-11T12:24:18.756Z,82.90
2019-05-11T12:25:19.616Z,83.61
2019-05-11T12:26:18.101Z,83.92
2019-05-11T12:27:18.411Z,83.00
2019-05-11T12:28:20.118Z,83.00
2019-05-11T12:29:19.115Z,82.59
2019-05-11T12:30:19.643Z,82.96
2019-05-11T12:31:18.884Z,81.15
2019-05-11T12:32:19.015Z,82.59
2019-05-11T12:33:20.107Z,83.00
2019-05-11T12:34:19.490Z,82.28
2019-05-11T12:35:20.338Z,82.39
2019-05-11T12:36:19.785Z,81.60
2019-05-11T12:37:22.003Z,81.98
2019-05-11T12:38:21.226Z,82.18
2019-05-11T12:39:20.425Z,82.90
2019-05-11T12:40:20.652Z,82.22
2019-05-11T12:41:20.766Z,82.39
2019-05-11T12:42:21.618Z,83.41
2019-05-11T12:43:22.605Z,83.00
2019-05-11T12:44:22.290Z,83.20
2019-05-11T12:45:21.503Z,82.59
2019-05-11T12:46:22.122Z,82.08
2019-05-11T12:47:24.862Z,81.94
2019-05-11T12:48:23.200Z,82.35
2019-05-11T12:49:22.414Z,82.65
2019-05-11T12:50:23.121Z,82.45
2019-05-11T12:51:23.113Z,82.31
2019-05-11T12:52:22.857Z,82.00
2019-05-11T12:53:23.003Z,81.35
2019-05-11T12:54:23.163Z,81.49
2019-05-11T12:55:24.136Z,80.05